UAE8VR VTBS-OMDB
Flight info
| Callsign | UAE8VR |
|---|---|
| Flight time | N/A |
| Altitude | 32000 |
| Route | PASTO1E PASTO L301 POTAS/N0502F340 L301 RAGMA N571 VUSET A454 PASOV B540 KUPMA/N0453F240 B540 MIVEK P574 IMPED |
| Aircraft | B77W/H-SDE1E2E3FGHIJ2J3J4J5M1RWXY/LB1D1 |
Departure
| Time | 2026-05-04 13:18 |
|---|---|
| Airport | Suvarnabhumi Airport (VTBS) |
Arrival
| Time | N/A |
|---|---|
| Airport | Dubai International Airport (OMDB) |
| Time | Latitude | Longitude | Altitude | Speed | Heading |
|---|---|---|---|---|---|
| 2026-05-04 12:35 | 13.69124 | 100.74857 | 19 ft | 0 kts | 14° |
| 2026-05-04 13:06 | 13.69107 | 100.74853 | 19 ft | 3 kts | 14° |
| 2026-05-04 13:06 | 13.69087 | 100.74847 | 21 ft | 3 kts | 14° |
| 2026-05-04 13:06 | 13.69068 | 100.74842 | 21 ft | 3 kts | 11° |
| 2026-05-04 13:07 | 13.69050 | 100.74842 | 19 ft | 3 kts | 326° |
| 2026-05-04 13:07 | 13.69039 | 100.74856 | 21 ft | 3 kts | 287° |
| 2026-05-04 13:07 | 13.69034 | 100.74876 | 21 ft | 2 kts | 284° |
| 2026-05-04 13:07 | 13.69033 | 100.74877 | 21 ft | 0 kts | 284° |
| 2026-05-04 13:09 | 13.69034 | 100.74877 | 18 ft | 0 kts | 284° |
| 2026-05-04 13:10 | 13.69037 | 100.74865 | 18 ft | 4 kts | 284° |
| 2026-05-04 13:10 | 13.69046 | 100.74826 | 18 ft | 7 kts | 279° |
| 2026-05-04 13:10 | 13.69013 | 100.74782 | 18 ft | 10 kts | 206° |
| 2026-05-04 13:10 | 13.68938 | 100.74762 | 18 ft | 13 kts | 194° |
| 2026-05-04 13:11 | 13.68844 | 100.74738 | 18 ft | 14 kts | 194° |
| 2026-05-04 13:11 | 13.68748 | 100.74713 | 18 ft | 14 kts | 196° |
| 2026-05-04 13:11 | 13.68714 | 100.74629 | 18 ft | 14 kts | 278° |
| 2026-05-04 13:11 | 13.68736 | 100.74530 | 18 ft | 14 kts | 285° |
| 2026-05-04 13:12 | 13.68762 | 100.74433 | 18 ft | 14 kts | 285° |
| 2026-05-04 13:12 | 13.68787 | 100.74335 | 18 ft | 14 kts | 284° |
| 2026-05-04 13:12 | 13.68815 | 100.74240 | 18 ft | 13 kts | 306° |
| 2026-05-04 13:12 | 13.68902 | 100.74226 | 18 ft | 13 kts | 12° |
| 2026-05-04 13:13 | 13.68992 | 100.74248 | 18 ft | 13 kts | 14° |
| 2026-05-04 13:13 | 13.69084 | 100.74272 | 18 ft | 13 kts | 14° |
| 2026-05-04 13:13 | 13.69176 | 100.74297 | 18 ft | 14 kts | 14° |
| 2026-05-04 13:13 | 13.69279 | 100.74324 | 18 ft | 16 kts | 14° |
| 2026-05-04 13:14 | 13.69392 | 100.74354 | 18 ft | 17 kts | 14° |
| 2026-05-04 13:14 | 13.69513 | 100.74385 | 18 ft | 19 kts | 14° |
| 2026-05-04 13:14 | 13.69642 | 100.74419 | 18 ft | 20 kts | 14° |
| 2026-05-04 13:14 | 13.69778 | 100.74454 | 18 ft | 21 kts | 14° |
| 2026-05-04 13:15 | 13.69921 | 100.74492 | 18 ft | 22 kts | 14° |
| 2026-05-04 13:15 | 13.70069 | 100.74532 | 18 ft | 22 kts | 14° |
| 2026-05-04 13:15 | 13.70216 | 100.74570 | 18 ft | 19 kts | 14° |
| 2026-05-04 13:15 | 13.70294 | 100.74584 | 18 ft | 8 kts | 339° |
| 2026-05-04 13:16 | 13.70315 | 100.74531 | 18 ft | 9 kts | 282° |
| 2026-05-04 13:16 | 13.70331 | 100.74463 | 20 ft | 10 kts | 284° |
| 2026-05-04 13:16 | 13.70346 | 100.74387 | 19 ft | 11 kts | 273° |
| 2026-05-04 13:16 | 13.70324 | 100.74313 | 19 ft | 10 kts | 221° |
| 2026-05-04 13:17 | 13.70220 | 100.74280 | 20 ft | 34 kts | 195° |
| 2026-05-04 13:17 | 13.69736 | 100.74154 | 17 ft | 108 kts | 194° |
| 2026-05-04 13:17 | 13.68793 | 100.73905 | 19 ft | 170 kts | 194° |
| 2026-05-04 13:17 | 13.67501 | 100.73556 | 65 ft | 211 kts | 195° |
| 2026-05-04 13:18 | 13.66098 | 100.73176 | 658 ft | 209 kts | 194° |
| 2026-05-04 13:18 | 13.64691 | 100.72817 | 1285 ft | 207 kts | 193° |
| 2026-05-04 13:18 | 13.63315 | 100.72463 | 1965 ft | 204 kts | 193° |
| 2026-05-04 13:18 | 13.61880 | 100.72096 | 2235 ft | 222 kts | 193° |
| 2026-05-04 13:19 | 13.60313 | 100.71699 | 2474 ft | 238 kts | 193° |
| 2026-05-04 13:19 | 13.58709 | 100.71273 | 3083 ft | 238 kts | 193° |
| 2026-05-04 13:19 | 13.57114 | 100.70834 | 3707 ft | 236 kts | 193° |
| 2026-05-04 13:19 | 13.55523 | 100.70388 | 4230 ft | 240 kts | 195° |
| 2026-05-04 13:20 | 13.54027 | 100.69552 | 4474 ft | 254 kts | 226° |
| 2026-05-04 13:20 | 13.53160 | 100.67978 | 4908 ft | 262 kts | 257° |
| 2026-05-04 13:20 | 13.53199 | 100.66067 | 5133 ft | 274 kts | 285° |
| 2026-05-04 13:20 | 13.53750 | 100.64181 | 5712 ft | 277 kts | 285° |
| 2026-05-04 13:21 | 13.54261 | 100.62268 | 6317 ft | 281 kts | 284° |
| 2026-05-04 13:21 | 13.54760 | 100.60310 | 6811 ft | 285 kts | 285° |
| 2026-05-04 13:21 | 13.55648 | 100.58483 | 7143 ft | 292 kts | 315° |
| 2026-05-04 13:21 | 13.57359 | 100.57392 | 7652 ft | 293 kts | 347° |
| 2026-05-04 13:22 | 13.59370 | 100.57236 | 8200 ft | 291 kts | 4° |
| 2026-05-04 13:22 | 13.61422 | 100.57308 | 8664 ft | 297 kts | 3° |
| 2026-05-04 13:22 | 13.63484 | 100.57369 | 9405 ft | 291 kts | 2° |
| 2026-05-04 13:22 | 13.65517 | 100.57429 | 9948 ft | 297 kts | 2° |
| 2026-05-04 13:23 | 13.67595 | 100.57484 | 10186 ft | 301 kts | 2° |
| 2026-05-04 13:23 | 13.69753 | 100.57541 | 10385 ft | 320 kts | 2° |
| 2026-05-04 13:23 | 13.72042 | 100.57602 | 10536 ft | 339 kts | 2° |
| 2026-05-04 13:23 | 13.74471 | 100.57667 | 10672 ft | 359 kts | 2° |
| 2026-05-04 13:24 | 13.77023 | 100.57667 | 10783 ft | 374 kts | 354° |
| 2026-05-04 13:24 | 13.79529 | 100.56843 | 11072 ft | 386 kts | 330° |
| 2026-05-04 13:24 | 13.81769 | 100.55365 | 11446 ft | 392 kts | 327° |
| 2026-05-04 13:25 | 13.86426 | 100.52369 | 12763 ft | 397 kts | 329° |
| 2026-05-04 13:25 | 13.88796 | 100.50881 | 13449 ft | 400 kts | 329° |
| 2026-05-04 13:25 | 13.91175 | 100.49379 | 14034 ft | 401 kts | 327° |
| 2026-05-04 13:25 | 13.93263 | 100.47476 | 14370 ft | 408 kts | 306° |
| 2026-05-04 13:26 | 13.94565 | 100.44877 | 14869 ft | 412 kts | 287° |
| 2026-05-04 13:26 | 13.95109 | 100.41995 | 15458 ft | 411 kts | 278° |
| 2026-05-04 13:26 | 13.95488 | 100.39058 | 15917 ft | 417 kts | 277° |
| 2026-05-04 13:26 | 13.95866 | 100.36089 | 16458 ft | 420 kts | 278° |
| 2026-05-04 13:27 | 13.96259 | 100.33105 | 17031 ft | 422 kts | 278° |
| 2026-05-04 13:27 | 13.96670 | 100.30107 | 17574 ft | 424 kts | 278° |
| 2026-05-04 13:27 | 13.97094 | 100.27088 | 18101 ft | 427 kts | 279° |
| 2026-05-04 13:27 | 13.97521 | 100.24052 | 18553 ft | 430 kts | 278° |
| 2026-05-04 13:28 | 13.97786 | 100.20972 | 19010 ft | 433 kts | 273° |
| 2026-05-04 13:28 | 13.97863 | 100.17874 | 19524 ft | 433 kts | 271° |
| 2026-05-04 13:28 | 13.97899 | 100.14772 | 20059 ft | 433 kts | 271° |
| 2026-05-04 13:28 | 13.97967 | 100.11656 | 20460 ft | 437 kts | 272° |
| 2026-05-04 13:29 | 13.98071 | 100.08511 | 20830 ft | 442 kts | 272° |
| 2026-05-04 13:29 | 13.98190 | 100.05347 | 21328 ft | 442 kts | 272° |
| 2026-05-04 13:29 | 13.98308 | 100.02176 | 21783 ft | 444 kts | 272° |
| 2026-05-04 13:29 | 13.98425 | 99.98990 | 22195 ft | 447 kts | 272° |
| 2026-05-04 13:30 | 13.98540 | 99.95778 | 22568 ft | 451 kts | 272° |
| 2026-05-04 13:30 | 13.98655 | 99.92544 | 22961 ft | 453 kts | 272° |
| 2026-05-04 13:30 | 13.98771 | 99.89292 | 23381 ft | 455 kts | 272° |
| 2026-05-04 13:30 | 13.98886 | 99.86029 | 23721 ft | 457 kts | 272° |
| 2026-05-04 13:31 | 13.99001 | 99.82748 | 24057 ft | 459 kts | 272° |
| 2026-05-04 13:31 | 13.99117 | 99.79457 | 24387 ft | 461 kts | 272° |
| 2026-05-04 13:31 | 13.99233 | 99.76152 | 24715 ft | 463 kts | 272° |
| 2026-05-04 13:31 | 13.99348 | 99.72833 | 25040 ft | 465 kts | 272° |
| 2026-05-04 13:32 | 13.99464 | 99.69498 | 25356 ft | 467 kts | 272° |
| 2026-05-04 13:32 | 13.99580 | 99.66150 | 25672 ft | 469 kts | 272° |
| 2026-05-04 13:32 | 13.99695 | 99.62790 | 25979 ft | 471 kts | 272° |
| 2026-05-04 13:32 | 13.99811 | 99.59420 | 26282 ft | 472 kts | 272° |
| 2026-05-04 13:33 | 13.99927 | 99.56033 | 26586 ft | 474 kts | 272° |
| 2026-05-04 13:33 | 14.00043 | 99.52634 | 26888 ft | 476 kts | 272° |
| 2026-05-04 13:33 | 14.00171 | 99.49227 | 27171 ft | 478 kts | 273° |
| 2026-05-04 13:33 | 14.00424 | 99.45815 | 27445 ft | 480 kts | 275° |
| 2026-05-04 13:34 | 14.00764 | 99.42391 | 27713 ft | 481 kts | 276° |
| 2026-05-04 13:34 | 14.01133 | 99.38958 | 27982 ft | 483 kts | 276° |
| 2026-05-04 13:34 | 14.01499 | 99.35517 | 28260 ft | 484 kts | 276° |
| 2026-05-04 13:34 | 14.01854 | 99.32065 | 28509 ft | 486 kts | 276° |
| 2026-05-04 13:35 | 14.02196 | 99.28594 | 28751 ft | 488 kts | 275° |
| 2026-05-04 13:35 | 14.02860 | 99.21624 | 29213 ft | 490 kts | 275° |
| 2026-05-04 13:35 | 14.03189 | 99.18128 | 29424 ft | 492 kts | 275° |
| 2026-05-04 13:36 | 14.03408 | 99.15804 | 29589 ft | 492 kts | 275° |
| 2026-05-04 13:36 | 14.03738 | 99.12300 | 29889 ft | 491 kts | 275° |
| 2026-05-04 13:36 | 14.04067 | 99.08816 | 30205 ft | 490 kts | 275° |
| 2026-05-04 13:36 | 14.04502 | 99.04198 | 30549 ft | 489 kts | 275° |
| 2026-05-04 13:37 | 14.04829 | 99.00720 | 30819 ft | 487 kts | 275° |
| 2026-05-04 13:37 | 14.05155 | 98.97258 | 31182 ft | 484 kts | 275° |
| 2026-05-04 13:37 | 14.05350 | 98.94993 | 31379 ft | 483 kts | 275° |
| 2026-05-04 13:37 | 14.05591 | 98.91611 | 31629 ft | 483 kts | 274° |
| 2026-05-04 13:38 | 14.05805 | 98.88152 | 31841 ft | 484 kts | 274° |
| 2026-05-04 13:38 | 14.06213 | 98.81304 | 31934 ft | 485 kts | 274° |
| 2026-05-04 13:39 | 14.06637 | 98.74494 | 31949 ft | 491 kts | 274° |
| 2026-05-04 13:39 | 14.07091 | 98.67448 | 31948 ft | 495 kts | 274° |
| 2026-05-04 13:40 | 14.07545 | 98.60401 | 31949 ft | 499 kts | 274° |
| 2026-05-04 13:40 | 14.08003 | 98.53254 | 31945 ft | 502 kts | 274° |
| 2026-05-04 13:41 | 14.08459 | 98.46065 | 31938 ft | 504 kts | 274° |
| 2026-05-04 13:41 | 14.08915 | 98.38855 | 31939 ft | 505 kts | 274° |
| 2026-05-04 13:42 | 14.09599 | 98.27991 | 31920 ft | 508 kts | 274° |
| 2026-05-04 13:42 | 14.10177 | 98.20739 | 31915 ft | 509 kts | 278° |
| 2026-05-04 13:43 | 14.11733 | 98.13631 | 31915 ft | 509 kts | 284° |
| 2026-05-04 13:43 | 14.13529 | 98.06712 | 31910 ft | 510 kts | 284° |
| 2026-05-04 13:44 | 14.15079 | 98.00653 | 31902 ft | 510 kts | 284° |
| 2026-05-04 13:44 | 14.16803 | 97.93806 | 31900 ft | 510 kts | 284° |
| 2026-05-04 13:45 | 14.18569 | 97.86733 | 31901 ft | 510 kts | 284° |
| 2026-05-04 13:45 | 14.20335 | 97.79646 | 31901 ft | 510 kts | 284° |
| 2026-05-04 13:46 | 14.22100 | 97.72565 | 31895 ft | 510 kts | 284° |
| 2026-05-04 13:46 | 14.23864 | 97.65480 | 31899 ft | 510 kts | 284° |
| 2026-05-04 13:47 | 14.25623 | 97.58404 | 31898 ft | 510 kts | 284° |
| 2026-05-04 13:47 | 14.27384 | 97.51313 | 31894 ft | 510 kts | 284° |
| 2026-05-04 13:48 | 14.29140 | 97.44232 | 31894 ft | 510 kts | 284° |
| 2026-05-04 13:48 | 14.30897 | 97.37137 | 31893 ft | 511 kts | 284° |
| 2026-05-04 13:49 | 14.32652 | 97.30040 | 31896 ft | 511 kts | 284° |
| 2026-05-04 13:49 | 14.34405 | 97.22944 | 31896 ft | 511 kts | 284° |
| 2026-05-04 13:50 | 14.36144 | 97.15895 | 31892 ft | 511 kts | 284° |
| 2026-05-04 13:50 | 14.37892 | 97.08795 | 31890 ft | 511 kts | 284° |
| 2026-05-04 13:51 | 14.39641 | 97.01685 | 31890 ft | 511 kts | 284° |
| 2026-05-04 13:51 | 14.41386 | 96.94582 | 31890 ft | 511 kts | 284° |
| 2026-05-04 13:52 | 14.43981 | 96.83999 | 31888 ft | 511 kts | 284° |
| 2026-05-04 13:53 | 14.45723 | 96.76883 | 31889 ft | 511 kts | 284° |
| 2026-05-04 13:53 | 14.47462 | 96.69769 | 31891 ft | 511 kts | 284° |
| 2026-05-04 13:54 | 14.50068 | 96.59091 | 31888 ft | 512 kts | 284° |
| 2026-05-04 13:55 | 14.52673 | 96.48395 | 31886 ft | 513 kts | 284° |
| 2026-05-04 13:55 | 14.55275 | 96.37687 | 31887 ft | 513 kts | 284° |
| 2026-05-04 13:56 | 14.57008 | 96.30541 | 31890 ft | 513 kts | 284° |
| 2026-05-04 13:57 | 14.59606 | 96.19812 | 31890 ft | 514 kts | 284° |
| 2026-05-04 13:58 | 14.63062 | 96.05507 | 31886 ft | 514 kts | 284° |
| 2026-05-04 13:58 | 14.65639 | 95.94813 | 31887 ft | 514 kts | 284° |
| 2026-05-04 13:59 | 14.67362 | 95.87650 | 31888 ft | 514 kts | 284° |
| 2026-05-04 14:00 | 14.69942 | 95.76901 | 31886 ft | 514 kts | 284° |
| 2026-05-04 14:00 | 14.72518 | 95.66148 | 31887 ft | 514 kts | 284° |
| 2026-05-04 14:01 | 14.74233 | 95.58979 | 31887 ft | 514 kts | 284° |
| 2026-05-04 14:02 | 14.76802 | 95.48217 | 31885 ft | 514 kts | 283° |
| 2026-05-04 14:02 | 14.78512 | 95.41041 | 31887 ft | 514 kts | 283° |
| 2026-05-04 14:03 | 14.80220 | 95.33864 | 31886 ft | 514 kts | 283° |
| 2026-05-04 14:03 | 14.81925 | 95.26686 | 31889 ft | 514 kts | 283° |
| 2026-05-04 14:04 | 14.84478 | 95.15921 | 31887 ft | 514 kts | 283° |
| 2026-05-04 14:04 | 14.86176 | 95.08748 | 31889 ft | 514 kts | 283° |
| 2026-05-04 14:05 | 14.88719 | 94.97988 | 31890 ft | 514 kts | 283° |
| 2026-05-04 14:06 | 14.90413 | 94.90805 | 31891 ft | 514 kts | 283° |
| 2026-05-04 14:06 | 14.92104 | 94.83624 | 31887 ft | 514 kts | 283° |
| 2026-05-04 14:07 | 14.93794 | 94.76437 | 31888 ft | 514 kts | 283° |
| 2026-05-04 14:07 | 14.95471 | 94.69295 | 31887 ft | 514 kts | 283° |
| 2026-05-04 14:08 | 14.97157 | 94.62104 | 31887 ft | 514 kts | 283° |
| 2026-05-04 14:08 | 14.98840 | 94.54914 | 31897 ft | 514 kts | 283° |
| 2026-05-04 14:09 | 15.01359 | 94.44134 | 31892 ft | 514 kts | 283° |
| 2026-05-04 14:10 | 15.03871 | 94.33360 | 31893 ft | 513 kts | 283° |
| 2026-05-04 14:10 | 15.05542 | 94.26178 | 31893 ft | 513 kts | 283° |
| 2026-05-04 14:11 | 15.07210 | 94.19002 | 31895 ft | 513 kts | 283° |
| 2026-05-04 14:11 | 15.09705 | 94.08241 | 31892 ft | 513 kts | 283° |
| 2026-05-04 14:12 | 15.11366 | 94.01065 | 31896 ft | 512 kts | 283° |
| 2026-05-04 14:13 | 15.13852 | 93.90308 | 31896 ft | 512 kts | 283° |
| 2026-05-04 14:13 | 15.15506 | 93.83134 | 31896 ft | 512 kts | 283° |
| 2026-05-04 14:14 | 15.17157 | 93.75962 | 31893 ft | 512 kts | 283° |
| 2026-05-04 14:14 | 15.19630 | 93.65203 | 31893 ft | 512 kts | 283° |
| 2026-05-04 14:15 | 15.22917 | 93.50859 | 31896 ft | 512 kts | 283° |
| 2026-05-04 14:16 | 15.25378 | 93.40093 | 31896 ft | 512 kts | 283° |
| 2026-05-04 14:17 | 15.27822 | 93.29375 | 31896 ft | 512 kts | 283° |
| 2026-05-04 14:18 | 15.30272 | 93.18606 | 31897 ft | 512 kts | 283° |
| 2026-05-04 14:19 | 15.33532 | 93.04237 | 31899 ft | 512 kts | 283° |
| 2026-05-04 14:19 | 15.35159 | 92.97053 | 31895 ft | 512 kts | 283° |
| 2026-05-04 14:20 | 15.36782 | 92.89868 | 31899 ft | 512 kts | 283° |
| 2026-05-04 14:20 | 15.38402 | 92.82691 | 31898 ft | 512 kts | 283° |
| 2026-05-04 14:21 | 15.40830 | 92.71904 | 31896 ft | 512 kts | 283° |
| 2026-05-04 14:21 | 15.42447 | 92.64714 | 31895 ft | 512 kts | 283° |
| 2026-05-04 14:22 | 15.44130 | 92.57545 | 31892 ft | 512 kts | 284° |
| 2026-05-04 14:22 | 15.45925 | 92.50396 | 31894 ft | 512 kts | 284° |
| 2026-05-04 14:23 | 15.48601 | 92.39670 | 31894 ft | 512 kts | 284° |
| 2026-05-04 14:24 | 15.50364 | 92.32510 | 31899 ft | 513 kts | 284° |
| 2026-05-04 14:24 | 15.51827 | 92.26553 | 31894 ft | 513 kts | 284° |
| 2026-05-04 14:25 | 15.53586 | 92.19387 | 31897 ft | 513 kts | 284° |
| 2026-05-04 14:25 | 15.56225 | 92.08624 | 31896 ft | 513 kts | 284° |
| 2026-05-04 14:26 | 15.57981 | 92.01447 | 31896 ft | 513 kts | 284° |
| 2026-05-04 14:26 | 15.59726 | 91.94264 | 31896 ft | 514 kts | 284° |
| 2026-05-04 14:27 | 15.61454 | 91.87076 | 31899 ft | 514 kts | 283° |
| 2026-05-04 14:27 | 15.63179 | 91.79885 | 31899 ft | 514 kts | 283° |
| 2026-05-04 14:28 | 15.64906 | 91.72687 | 31896 ft | 514 kts | 283° |
| 2026-05-04 14:28 | 15.66629 | 91.65496 | 31895 ft | 513 kts | 283° |
| 2026-05-04 14:29 | 15.70068 | 91.51119 | 31897 ft | 513 kts | 283° |
| 2026-05-04 14:30 | 15.71782 | 91.43933 | 31899 ft | 513 kts | 283° |
| 2026-05-04 14:31 | 15.74349 | 91.33153 | 31897 ft | 513 kts | 283° |
| 2026-05-04 14:32 | 15.77763 | 91.18776 | 31897 ft | 513 kts | 283° |
| 2026-05-04 14:32 | 15.79466 | 91.11590 | 31899 ft | 513 kts | 283° |
| 2026-05-04 14:33 | 15.81168 | 91.04395 | 31898 ft | 513 kts | 283° |
| 2026-05-04 14:33 | 15.82867 | 90.97204 | 31899 ft | 513 kts | 283° |
| 2026-05-04 14:34 | 15.84563 | 90.90010 | 31896 ft | 513 kts | 283° |
| 2026-05-04 14:34 | 15.86247 | 90.82858 | 31896 ft | 513 kts | 283° |
| 2026-05-04 14:35 | 15.87939 | 90.75659 | 31899 ft | 513 kts | 283° |
| 2026-05-04 14:35 | 15.89629 | 90.68459 | 31899 ft | 513 kts | 283° |
| 2026-05-04 14:36 | 15.91317 | 90.61257 | 31898 ft | 513 kts | 283° |
| 2026-05-04 14:36 | 15.93001 | 90.54058 | 31899 ft | 513 kts | 283° |
| 2026-05-04 14:37 | 15.94683 | 90.46859 | 31899 ft | 513 kts | 283° |
| 2026-05-04 14:37 | 15.96362 | 90.39660 | 31898 ft | 513 kts | 283° |
| 2026-05-04 14:38 | 15.98038 | 90.32461 | 31902 ft | 512 kts | 283° |
| 2026-05-04 14:38 | 15.99712 | 90.25261 | 31900 ft | 512 kts | 283° |
| 2026-05-04 14:39 | 16.01357 | 90.18174 | 31892 ft | 512 kts | 283° |
| 2026-05-04 14:39 | 16.03056 | 90.10983 | 31896 ft | 512 kts | 283° |
| 2026-05-04 14:40 | 16.05668 | 90.00214 | 31899 ft | 512 kts | 283° |
| 2026-05-04 14:40 | 16.07402 | 89.93032 | 31896 ft | 512 kts | 283° |
| 2026-05-04 14:41 | 16.09124 | 89.85856 | 31895 ft | 511 kts | 283° |